sensor_id;sensor_type;location;lat;lon;timestamp;P1;durP1;ratioP1;P2;durP2;ratioP2
9836;SDS011;4957;51.412;6.724;2023-08-21T00:01:36;7.73;;;2.33;;
9836;SDS011;4957;51.412;6.724;2023-08-21T00:04:02;8.33;;;1.90;;
9836;SDS011;4957;51.412;6.724;2023-08-21T00:06:28;6.70;;;2.20;;
9836;SDS011;4957;51.412;6.724;2023-08-21T00:08:54;5.80;;;2.67;;
9836;SDS011;4957;51.412;6.724;2023-08-21T00:11:20;4.50;;;2.40;;
9836;SDS011;4957;51.412;6.724;2023-08-21T00:13:45;5.23;;;2.30;;
9836;SDS011;4957;51.412;6.724;2023-08-21T00:16:13;8.80;;;2.00;;
9836;SDS011;4957;51.412;6.724;2023-08-21T00:18:39;4.87;;;1.90;;
9836;SDS011;4957;51.412;6.724;2023-08-21T00:21:05;3.63;;;1.70;;
9836;SDS011;4957;51.412;6.724;2023-08-21T00:23:31;6.33;;;1.87;;
9836;SDS011;4957;51.412;6.724;2023-08-21T00:25:56;5.63;;;1.80;;
9836;SDS011;4957;51.412;6.724;2023-08-21T00:28:22;5.40;;;2.00;;
9836;SDS011;4957;51.412;6.724;2023-08-21T00:30:48;3.03;;;1.50;;
9836;SDS011;4957;51.412;6.724;2023-08-21T00:33:14;7.13;;;1.70;;
9836;SDS011;4957;51.412;6.724;2023-08-21T00:35:39;4.20;;;1.77;;
9836;SDS011;4957;51.412;6.724;2023-08-21T00:38:06;4.27;;;1.80;;
9836;SDS011;4957;51.412;6.724;2023-08-21T00:40:32;3.43;;;1.40;;
9836;SDS011;4957;51.412;6.724;2023-08-21T00:42:58;7.20;;;1.73;;
9836;SDS011;4957;51.412;6.724;2023-08-21T00:45:23;10.10;;;1.90;;
9836;SDS011;4957;51.412;6.724;2023-08-21T00:47:49;5.10;;;1.70;;
9836;SDS011;4957;51.412;6.724;2023-08-21T00:50:15;4.20;;;1.60;;
9836;SDS011;4957;51.412;6.724;2023-08-21T00:52:41;5.70;;;1.60;;
9836;SDS011;4957;51.412;6.724;2023-08-21T00:55:11;4.50;;;2.20;;
9836;SDS011;4957;51.412;6.724;2023-08-21T00:57:38;4.53;;;1.80;;
9836;SDS011;4957;51.412;6.724;2023-08-21T01:00:04;8.13;;;2.10;;
9836;SDS011;4957;51.412;6.724;2023-08-21T01:02:31;4.60;;;1.60;;
9836;SDS011;4957;51.412;6.724;2023-08-21T01:04:56;4.93;;;1.80;;
9836;SDS011;4957;51.412;6.724;2023-08-21T01:07:22;5.77;;;1.70;;
9836;SDS011;4957;51.412;6.724;2023-08-21T01:09:58;8.97;;;2.30;;
9836;SDS011;4957;51.412;6.724;2023-08-21T01:12:33;5.47;;;2.20;;
9836;SDS011;4957;51.412;6.724;2023-08-21T01:15:06;3.10;;;1.60;;
9836;SDS011;4957;51.412;6.724;2023-08-21T01:17:35;3.67;;;1.50;;
9836;SDS011;4957;51.412;6.724;2023-08-21T01:20:03;6.00;;;1.30;;
9836;SDS011;4957;51.412;6.724;2023-08-21T01:22:36;4.23;;;1.43;;
9836;SDS011;4957;51.412;6.724;2023-08-21T01:25:06;4.37;;;1.60;;
9836;SDS011;4957;51.412;6.724;2023-08-21T01:27:33;7.33;;;1.80;;
9836;SDS011;4957;51.412;6.724;2023-08-21T01:30:03;5.93;;;1.53;;
9836;SDS011;4957;51.412;6.724;2023-08-21T01:35:02;3.77;;;1.67;;
9836;SDS011;4957;51.412;6.724;2023-08-21T01:37:30;3.73;;;1.50;;
9836;SDS011;4957;51.412;6.724;2023-08-21T01:39:59;3.87;;;1.40;;
9836;SDS011;4957;51.412;6.724;2023-08-21T01:42:25;5.40;;;1.50;;
9836;SDS011;4957;51.412;6.724;2023-08-21T01:44:51;6.13;;;1.63;;
9836;SDS011;4957;51.412;6.724;2023-08-21T01:47:17;12.60;;;1.90;;
9836;SDS011;4957;51.412;6.724;2023-08-21T01:49:43;6.97;;;1.80;;
9836;SDS011;4957;51.412;6.724;2023-08-21T01:52:08;4.67;;;2.33;;
9836;SDS011;4957;51.412;6.724;2023-08-21T01:54:35;4.37;;;1.53;;
9836;SDS011;4957;51.412;6.724;2023-08-21T01:57:00;6.97;;;1.70;;
9836;SDS011;4957;51.412;6.724;2023-08-21T01:59:26;4.70;;;1.67;;
9836;SDS011;4957;51.412;6.724;2023-08-21T02:01:52;4.50;;;1.60;;
9836;SDS011;4957;51.412;6.724;2023-08-21T02:04:18;2.80;;;1.30;;
9836;SDS011;4957;51.412;6.724;2023-08-21T02:06:44;3.50;;;1.50;;
9836;SDS011;4957;51.412;6.724;2023-08-21T02:09:10;6.37;;;2.00;;
9836;SDS011;4957;51.412;6.724;2023-08-21T02:11:36;5.30;;;1.80;;
9836;SDS011;4957;51.412;6.724;2023-08-21T02:14:02;3.90;;;1.70;;
9836;SDS011;4957;51.412;6.724;2023-08-21T02:16:28;4.43;;;1.60;;
9836;SDS011;4957;51.412;6.724;2023-08-21T02:18:53;3.73;;;1.80;;
9836;SDS011;4957;51.412;6.724;2023-08-21T02:21:20;7.37;;;1.93;;
9836;SDS011;4957;51.412;6.724;2023-08-21T02:23:46;5.53;;;1.73;;
9836;SDS011;4957;51.412;6.724;2023-08-21T02:26:11;3.40;;;1.80;;
9836;SDS011;4957;51.412;6.724;2023-08-21T02:28:37;3.60;;;1.40;;
9836;SDS011;4957;51.412;6.724;2023-08-21T02:31:03;3.57;;;1.40;;
9836;SDS011;4957;51.412;6.724;2023-08-21T02:33:30;5.50;;;1.80;;
9836;SDS011;4957;51.412;6.724;2023-08-21T02:35:56;3.53;;;1.53;;
9836;SDS011;4957;51.412;6.724;2023-08-21T02:38:21;7.70;;;1.77;;
9836;SDS011;4957;51.412;6.724;2023-08-21T02:40:47;6.47;;;1.77;;
9836;SDS011;4957;51.412;6.724;2023-08-21T02:43:13;4.07;;;1.50;;
9836;SDS011;4957;51.412;6.724;2023-08-21T02:45:39;4.40;;;1.70;;
9836;SDS011;4957;51.412;6.724;2023-08-21T02:48:05;3.67;;;1.80;;
9836;SDS011;4957;51.412;6.724;2023-08-21T02:50:31;5.40;;;2.00;;
9836;SDS011;4957;51.412;6.724;2023-08-21T02:52:56;3.30;;;1.53;;
9836;SDS011;4957;51.412;6.724;2023-08-21T02:55:22;2.37;;;1.60;;
9836;SDS011;4957;51.412;6.724;2023-08-21T02:57:47;6.33;;;2.00;;
9836;SDS011;4957;51.412;6.724;2023-08-21T03:00:13;7.70;;;1.83;;
9836;SDS011;4957;51.412;6.724;2023-08-21T03:02:39;2.93;;;1.63;;
9836;SDS011;4957;51.412;6.724;2023-08-21T03:05:08;6.60;;;1.83;;
9836;SDS011;4957;51.412;6.724;2023-08-21T03:07:35;7.30;;;2.37;;
9836;SDS011;4957;51.412;6.724;2023-08-21T03:10:00;4.60;;;2.00;;
9836;SDS011;4957;51.412;6.724;2023-08-21T03:12:27;3.80;;;1.97;;
9836;SDS011;4957;51.412;6.724;2023-08-21T03:14:53;4.90;;;1.70;;
9836;SDS011;4957;51.412;6.724;2023-08-21T03:17:19;1.77;;;1.40;;
9836;SDS011;4957;51.412;6.724;2023-08-21T03:19:44;5.87;;;1.57;;
9836;SDS011;4957;51.412;6.724;2023-08-21T03:22:10;5.67;;;1.63;;
9836;SDS011;4957;51.412;6.724;2023-08-21T03:24:36;5.80;;;1.37;;
9836;SDS011;4957;51.412;6.724;2023-08-21T03:27:02;4.70;;;1.83;;
9836;SDS011;4957;51.412;6.724;2023-08-21T03:29:28;5.30;;;1.57;;
9836;SDS011;4957;51.412;6.724;2023-08-21T03:31:54;2.63;;;1.63;;
9836;SDS011;4957;51.412;6.724;2023-08-21T03:34:19;5.20;;;1.60;;
9836;SDS011;4957;51.412;6.724;2023-08-21T03:36:45;3.33;;;1.63;;
9836;SDS011;4957;51.412;6.724;2023-08-21T03:39:11;3.23;;;1.70;;
9836;SDS011;4957;51.412;6.724;2023-08-21T03:41:36;7.73;;;2.20;;
9836;SDS011;4957;51.412;6.724;2023-08-21T03:44:02;7.63;;;2.43;;
9836;SDS011;4957;51.412;6.724;2023-08-21T03:46:28;8.40;;;2.87;;
9836;SDS011;4957;51.412;6.724;2023-08-21T03:48:54;4.33;;;2.30;;
9836;SDS011;4957;51.412;6.724;2023-08-21T03:51:19;3.70;;;2.03;;
9836;SDS011;4957;51.412;6.724;2023-08-21T03:53:45;7.00;;;2.87;;
9836;SDS011;4957;51.412;6.724;2023-08-21T03:56:11;5.03;;;2.00;;
9836;SDS011;4957;51.412;6.724;2023-08-21T03:58:37;6.57;;;2.43;;
9836;SDS011;4957;51.412;6.724;2023-08-21T04:01:02;4.33;;;2.20;;
9836;SDS011;4957;51.412;6.724;2023-08-21T04:03:29;8.03;;;2.77;;
9836;SDS011;4957;51.412;6.724;2023-08-21T04:05:54;6.13;;;2.70;;
9836;SDS011;4957;51.412;6.724;2023-08-21T04:08:21;7.43;;;2.80;;
9836;SDS011;4957;51.412;6.724;2023-08-21T04:10:47;5.53;;;2.20;;
9836;SDS011;4957;51.412;6.724;2023-08-21T04:13:13;4.07;;;2.10;;
9836;SDS011;4957;51.412;6.724;2023-08-21T04:15:39;3.50;;;2.30;;
9836;SDS011;4957;51.412;6.724;2023-08-21T04:18:10;7.03;;;3.20;;
9836;SDS011;4957;51.412;6.724;2023-08-21T04:20:35;12.23;;;2.97;;
9836;SDS011;4957;51.412;6.724;2023-08-21T04:23:01;9.43;;;3.07;;
9836;SDS011;4957;51.412;6.724;2023-08-21T04:25:27;6.57;;;2.53;;
9836;SDS011;4957;51.412;6.724;2023-08-21T04:27:53;7.57;;;3.13;;
9836;SDS011;4957;51.412;6.724;2023-08-21T04:30:19;10.10;;;3.03;;
9836;SDS011;4957;51.412;6.724;2023-08-21T04:32:44;11.50;;;2.97;;
9836;SDS011;4957;51.412;6.724;2023-08-21T04:35:10;5.67;;;2.77;;
9836;SDS011;4957;51.412;6.724;2023-08-21T04:37:37;5.43;;;2.60;;
9836;SDS011;4957;51.412;6.724;2023-08-21T04:40:03;10.73;;;3.20;;
9836;SDS011;4957;51.412;6.724;2023-08-21T04:42:29;8.40;;;3.00;;
9836;SDS011;4957;51.412;6.724;2023-08-21T04:44:55;9.20;;;2.93;;
9836;SDS011;4957;51.412;6.724;2023-08-21T04:47:24;6.00;;;2.37;;
9836;SDS011;4957;51.412;6.724;2023-08-21T04:49:51;7.43;;;2.63;;
9836;SDS011;4957;51.412;6.724;2023-08-21T04:52:18;5.00;;;2.13;;
9836;SDS011;4957;51.412;6.724;2023-08-21T04:54:47;10.50;;;2.57;;
9836;SDS011;4957;51.412;6.724;2023-08-21T04:57:14;6.57;;;2.50;;
9836;SDS011;4957;51.412;6.724;2023-08-21T04:59:40;7.00;;;2.60;;
9836;SDS011;4957;51.412;6.724;2023-08-21T05:02:06;9.20;;;2.83;;
9836;SDS011;4957;51.412;6.724;2023-08-21T05:04:32;9.40;;;3.17;;
9836;SDS011;4957;51.412;6.724;2023-08-21T05:06:58;9.50;;;3.03;;
9836;SDS011;4957;51.412;6.724;2023-08-21T05:09:23;6.60;;;2.37;;
9836;SDS011;4957;51.412;6.724;2023-08-21T05:11:49;6.20;;;2.40;;
9836;SDS011;4957;51.412;6.724;2023-08-21T05:14:15;8.43;;;2.60;;
9836;SDS011;4957;51.412;6.724;2023-08-21T05:16:40;8.43;;;2.53;;
9836;SDS011;4957;51.412;6.724;2023-08-21T05:19:06;12.90;;;3.80;;
9836;SDS011;4957;51.412;6.724;2023-08-21T05:21:32;11.90;;;4.20;;
9836;SDS011;4957;51.412;6.724;2023-08-21T05:23:58;11.43;;;3.93;;
9836;SDS011;4957;51.412;6.724;2023-08-21T05:26:24;18.67;;;4.67;;
9836;SDS011;4957;51.412;6.724;2023-08-21T05:28:49;20.87;;;4.73;;
9836;SDS011;4957;51.412;6.724;2023-08-21T05:31:15;8.87;;;3.20;;
9836;SDS011;4957;51.412;6.724;2023-08-21T05:33:40;7.07;;;2.77;;
9836;SDS011;4957;51.412;6.724;2023-08-21T05:36:06;6.23;;;2.33;;
9836;SDS011;4957;51.412;6.724;2023-08-21T05:38:32;8.37;;;2.00;;
9836;SDS011;4957;51.412;6.724;2023-08-21T05:40:57;3.00;;;2.10;;
9836;SDS011;4957;51.412;6.724;2023-08-21T05:43:23;6.47;;;2.37;;
9836;SDS011;4957;51.412;6.724;2023-08-21T05:45:49;4.93;;;2.10;;
9836;SDS011;4957;51.412;6.724;2023-08-21T05:48:15;7.00;;;2.03;;
9836;SDS011;4957;51.412;6.724;2023-08-21T05:50:42;4.97;;;2.13;;
9836;SDS011;4957;51.412;6.724;2023-08-21T05:53:08;5.50;;;1.97;;
9836;SDS011;4957;51.412;6.724;2023-08-21T05:55:34;8.53;;;2.23;;
9836;SDS011;4957;51.412;6.724;2023-08-21T05:58:02;4.20;;;2.00;;
9836;SDS011;4957;51.412;6.724;2023-08-21T06:00:28;8.10;;;2.17;;
9836;SDS011;4957;51.412;6.724;2023-08-21T06:02:53;8.30;;;2.00;;
9836;SDS011;4957;51.412;6.724;2023-08-21T06:05:19;7.93;;;1.80;;
9836;SDS011;4957;51.412;6.724;2023-08-21T06:07:45;7.27;;;2.13;;
9836;SDS011;4957;51.412;6.724;2023-08-21T06:10:11;16.17;;;2.60;;
9836;SDS011;4957;51.412;6.724;2023-08-21T06:12:37;14.13;;;2.63;;
9836;SDS011;4957;51.412;6.724;2023-08-21T06:15:05;12.43;;;2.83;;
9836;SDS011;4957;51.412;6.724;2023-08-21T06:17:33;10.73;;;2.70;;
9836;SDS011;4957;51.412;6.724;2023-08-21T06:19:58;8.63;;;2.47;;
9836;SDS011;4957;51.412;6.724;2023-08-21T06:22:24;13.80;;;2.70;;
9836;SDS011;4957;51.412;6.724;2023-08-21T06:24:50;9.17;;;2.30;;
9836;SDS011;4957;51.412;6.724;2023-08-21T06:27:16;9.00;;;1.90;;
9836;SDS011;4957;51.412;6.724;2023-08-21T06:29:42;7.27;;;2.60;;
9836;SDS011;4957;51.412;6.724;2023-08-21T06:32:07;4.67;;;2.43;;
9836;SDS011;4957;51.412;6.724;2023-08-21T06:34:33;8.87;;;2.13;;
9836;SDS011;4957;51.412;6.724;2023-08-21T06:36:59;6.10;;;1.70;;
9836;SDS011;4957;51.412;6.724;2023-08-21T06:39:25;4.37;;;1.70;;
9836;SDS011;4957;51.412;6.724;2023-08-21T06:41:51;6.37;;;2.20;;
9836;SDS011;4957;51.412;6.724;2023-08-21T06:44:17;5.73;;;1.80;;
9836;SDS011;4957;51.412;6.724;2023-08-21T06:46:43;6.30;;;1.70;;
9836;SDS011;4957;51.412;6.724;2023-08-21T06:49:08;5.07;;;1.63;;
9836;SDS011;4957;51.412;6.724;2023-08-21T06:51:34;11.00;;;2.23;;
9836;SDS011;4957;51.412;6.724;2023-08-21T06:54:01;12.60;;;2.50;;
9836;SDS011;4957;51.412;6.724;2023-08-21T06:56:26;15.83;;;2.30;;
9836;SDS011;4957;51.412;6.724;2023-08-21T06:58:52;12.23;;;2.50;;
9836;SDS011;4957;51.412;6.724;2023-08-21T07:01:20;8.70;;;2.63;;
9836;SDS011;4957;51.412;6.724;2023-08-21T07:03:46;6.13;;;2.27;;
9836;SDS011;4957;51.412;6.724;2023-08-21T07:06:12;12.90;;;3.03;;
9836;SDS011;4957;51.412;6.724;2023-08-21T07:08:38;12.00;;;2.60;;
9836;SDS011;4957;51.412;6.724;2023-08-21T07:11:05;10.80;;;3.50;;
9836;SDS011;4957;51.412;6.724;2023-08-21T07:13:35;8.30;;;2.90;;
9836;SDS011;4957;51.412;6.724;2023-08-21T07:16:01;16.10;;;2.77;;
9836;SDS011;4957;51.412;6.724;2023-08-21T07:18:28;10.60;;;3.20;;
9836;SDS011;4957;51.412;6.724;2023-08-21T07:21:03;9.17;;;3.63;;
9836;SDS011;4957;51.412;6.724;2023-08-21T07:23:29;9.80;;;3.80;;
9836;SDS011;4957;51.412;6.724;2023-08-21T07:25:59;14.93;;;3.67;;
9836;SDS011;4957;51.412;6.724;2023-08-21T07:28:26;11.07;;;3.60;;
9836;SDS011;4957;51.412;6.724;2023-08-21T07:30:55;10.20;;;2.47;;
9836;SDS011;4957;51.412;6.724;2023-08-21T07:33:24;9.53;;;3.03;;
9836;SDS011;4957;51.412;6.724;2023-08-21T07:35:57;7.30;;;2.50;;
9836;SDS011;4957;51.412;6.724;2023-08-21T07:38:26;10.97;;;2.00;;
9836;SDS011;4957;51.412;6.724;2023-08-21T07:41:01;7.53;;;2.57;;
9836;SDS011;4957;51.412;6.724;2023-08-21T07:43:30;4.40;;;2.00;;
9836;SDS011;4957;51.412;6.724;2023-08-21T07:45:56;9.17;;;2.40;;
9836;SDS011;4957;51.412;6.724;2023-08-21T07:48:22;8.20;;;2.17;;
9836;SDS011;4957;51.412;6.724;2023-08-21T07:50:51;9.07;;;2.33;;
9836;SDS011;4957;51.412;6.724;2023-08-21T07:53:20;7.77;;;2.07;;
9836;SDS011;4957;51.412;6.724;2023-08-21T07:55:46;8.07;;;2.40;;
9836;SDS011;4957;51.412;6.724;2023-08-21T07:58:12;13.40;;;2.23;;
9836;SDS011;4957;51.412;6.724;2023-08-21T08:00:38;7.03;;;2.00;;
9836;SDS011;4957;51.412;6.724;2023-08-21T08:03:04;10.00;;;1.93;;
9836;SDS011;4957;51.412;6.724;2023-08-21T08:05:30;11.27;;;2.30;;
9836;SDS011;4957;51.412;6.724;2023-08-21T08:07:57;5.27;;;1.80;;
9836;SDS011;4957;51.412;6.724;2023-08-21T08:10:23;5.10;;;2.17;;
9836;SDS011;4957;51.412;6.724;2023-08-21T08:12:49;9.17;;;1.87;;
9836;SDS011;4957;51.412;6.724;2023-08-21T08:15:15;6.93;;;2.23;;
9836;SDS011;4957;51.412;6.724;2023-08-21T08:17:42;9.20;;;2.80;;
9836;SDS011;4957;51.412;6.724;2023-08-21T08:20:08;9.10;;;2.53;;
9836;SDS011;4957;51.412;6.724;2023-08-21T08:22:34;9.60;;;2.40;;
9836;SDS011;4957;51.412;6.724;2023-08-21T08:24:59;5.57;;;1.80;;
9836;SDS011;4957;51.412;6.724;2023-08-21T08:27:25;8.40;;;2.17;;
9836;SDS011;4957;51.412;6.724;2023-08-21T08:29:51;6.17;;;1.80;;
9836;SDS011;4957;51.412;6.724;2023-08-21T08:32:16;6.23;;;1.83;;
9836;SDS011;4957;51.412;6.724;2023-08-21T08:34:42;3.77;;;1.57;;
9836;SDS011;4957;51.412;6.724;2023-08-21T08:37:11;5.33;;;1.70;;
9836;SDS011;4957;51.412;6.724;2023-08-21T08:39:37;6.27;;;2.20;;
9836;SDS011;4957;51.412;6.724;2023-08-21T08:42:03;4.03;;;1.50;;
9836;SDS011;4957;51.412;6.724;2023-08-21T08:44:30;5.33;;;1.57;;
9836;SDS011;4957;51.412;6.724;2023-08-21T08:47:00;3.70;;;1.83;;
9836;SDS011;4957;51.412;6.724;2023-08-21T08:49:27;5.90;;;1.50;;
9836;SDS011;4957;51.412;6.724;2023-08-21T08:51:53;10.43;;;2.83;;
9836;SDS011;4957;51.412;6.724;2023-08-21T08:54:19;6.43;;;1.83;;
9836;SDS011;4957;51.412;6.724;2023-08-21T08:56:47;7.03;;;1.83;;
9836;SDS011;4957;51.412;6.724;2023-08-21T08:59:13;6.50;;;1.73;;
9836;SDS011;4957;51.412;6.724;2023-08-21T09:01:40;4.17;;;1.50;;
9836;SDS011;4957;51.412;6.724;2023-08-21T09:04:06;6.03;;;2.30;;
9836;SDS011;4957;51.412;6.724;2023-08-21T09:06:32;6.97;;;1.80;;
9836;SDS011;4957;51.412;6.724;2023-08-21T09:08:59;6.63;;;1.83;;
9836;SDS011;4957;51.412;6.724;2023-08-21T09:11:24;5.77;;;1.70;;
9836;SDS011;4957;51.412;6.724;2023-08-21T09:13:51;5.03;;;1.47;;
9836;SDS011;4957;51.412;6.724;2023-08-21T09:16:18;3.87;;;1.50;;
9836;SDS011;4957;51.412;6.724;2023-08-21T09:18:48;5.13;;;2.03;;
9836;SDS011;4957;51.412;6.724;2023-08-21T09:21:15;1.90;;;1.33;;
9836;SDS011;4957;51.412;6.724;2023-08-21T09:23:42;5.57;;;1.50;;
9836;SDS011;4957;51.412;6.724;2023-08-21T09:26:17;4.70;;;1.33;;
9836;SDS011;4957;51.412;6.724;2023-08-21T09:28:45;4.20;;;1.50;;
9836;SDS011;4957;51.412;6.724;2023-08-21T09:31:11;9.00;;;1.50;;
9836;SDS011;4957;51.412;6.724;2023-08-21T09:33:36;5.17;;;1.30;;
9836;SDS011;4957;51.412;6.724;2023-08-21T09:36:02;6.60;;;1.70;;
9836;SDS011;4957;51.412;6.724;2023-08-21T09:38:29;4.10;;;1.50;;
9836;SDS011;4957;51.412;6.724;2023-08-21T09:40:58;3.00;;;1.43;;
9836;SDS011;4957;51.412;6.724;2023-08-21T09:43:27;6.67;;;1.40;;
9836;SDS011;4957;51.412;6.724;2023-08-21T09:45:53;6.67;;;1.50;;
9836;SDS011;4957;51.412;6.724;2023-08-21T09:48:23;5.07;;;1.37;;
9836;SDS011;4957;51.412;6.724;2023-08-21T09:50:51;4.27;;;1.33;;
9836;SDS011;4957;51.412;6.724;2023-08-21T09:53:18;4.57;;;1.60;;
9836;SDS011;4957;51.412;6.724;2023-08-21T09:55:46;7.17;;;1.40;;
9836;SDS011;4957;51.412;6.724;2023-08-21T09:58:14;4.93;;;1.50;;
9836;SDS011;4957;51.412;6.724;2023-08-21T10:00:41;5.77;;;1.60;;
9836;SDS011;4957;51.412;6.724;2023-08-21T10:03:08;4.33;;;1.20;;
9836;SDS011;4957;51.412;6.724;2023-08-21T10:05:36;4.73;;;1.30;;
9836;SDS011;4957;51.412;6.724;2023-08-21T10:08:05;5.10;;;1.30;;
9836;SDS011;4957;51.412;6.724;2023-08-21T10:10:32;4.77;;;1.63;;
9836;SDS011;4957;51.412;6.724;2023-08-21T10:13:02;5.63;;;1.60;;
9836;SDS011;4957;51.412;6.724;2023-08-21T10:15:29;3.77;;;1.23;;
9836;SDS011;4957;51.412;6.724;2023-08-21T10:17:56;6.03;;;1.47;;
9836;SDS011;4957;51.412;6.724;2023-08-21T10:20:22;3.03;;;1.37;;
9836;SDS011;4957;51.412;6.724;2023-08-21T10:22:51;3.93;;;1.30;;
9836;SDS011;4957;51.412;6.724;2023-08-21T10:25:20;7.10;;;2.17;;
9836;SDS011;4957;51.412;6.724;2023-08-21T10:27:58;11.00;;;2.60;;
9836;SDS011;4957;51.412;6.724;2023-08-21T10:30:26;7.57;;;2.40;;
9836;SDS011;4957;51.412;6.724;2023-08-21T10:32:53;7.77;;;3.27;;
9836;SDS011;4957;51.412;6.724;2023-08-21T10:35:21;3.33;;;1.60;;
9836;SDS011;4957;51.412;6.724;2023-08-21T10:38:06;8.47;;;2.17;;
9836;SDS011;4957;51.412;6.724;2023-08-21T10:41:05;8.43;;;2.57;;
9836;SDS011;4957;51.412;6.724;2023-08-21T10:43:43;5.90;;;2.13;;
9836;SDS011;4957;51.412;6.724;2023-08-21T10:46:10;4.70;;;2.00;;
9836;SDS011;4957;51.412;6.724;2023-08-21T10:48:36;10.10;;;3.70;;
9836;SDS011;4957;51.412;6.724;2023-08-21T10:51:04;8.97;;;2.40;;
9836;SDS011;4957;51.412;6.724;2023-08-21T10:53:32;8.43;;;2.60;;
9836;SDS011;4957;51.412;6.724;2023-08-21T10:56:05;8.03;;;2.63;;
9836;SDS011;4957;51.412;6.724;2023-08-21T10:58:36;4.90;;;1.73;;
9836;SDS011;4957;51.412;6.724;2023-08-21T11:01:03;3.43;;;1.50;;
9836;SDS011;4957;51.412;6.724;2023-08-21T11:03:29;5.10;;;1.60;;
9836;SDS011;4957;51.412;6.724;2023-08-21T11:06:02;12.40;;;1.47;;
9836;SDS011;4957;51.412;6.724;2023-08-21T11:08:29;4.03;;;1.40;;
9836;SDS011;4957;51.412;6.724;2023-08-21T11:10:56;7.23;;;1.60;;
9836;SDS011;4957;51.412;6.724;2023-08-21T11:13:24;5.67;;;2.40;;
9836;SDS011;4957;51.412;6.724;2023-08-21T11:16:05;7.03;;;2.20;;
9836;SDS011;4957;51.412;6.724;2023-08-21T11:21:07;4.20;;;1.67;;
9836;SDS011;4957;51.412;6.724;2023-08-21T11:23:41;6.70;;;1.90;;
9836;SDS011;4957;51.412;6.724;2023-08-21T11:26:10;4.00;;;1.30;;
9836;SDS011;4957;51.412;6.724;2023-08-21T11:28:36;4.23;;;1.67;;
9836;SDS011;4957;51.412;6.724;2023-08-21T11:31:04;3.33;;;1.27;;
9836;SDS011;4957;51.412;6.724;2023-08-21T11:33:31;5.57;;;1.63;;
9836;SDS011;4957;51.412;6.724;2023-08-21T11:35:56;4.40;;;1.80;;
9836;SDS011;4957;51.412;6.724;2023-08-21T11:38:25;5.17;;;1.37;;
9836;SDS011;4957;51.412;6.724;2023-08-21T11:40:55;5.10;;;2.07;;
9836;SDS011;4957;51.412;6.724;2023-08-21T11:43:33;6.50;;;1.77;;
9836;SDS011;4957;51.412;6.724;2023-08-21T11:46:03;5.70;;;1.93;;
9836;SDS011;4957;51.412;6.724;2023-08-21T11:48:30;3.27;;;1.27;;
9836;SDS011;4957;51.412;6.724;2023-08-21T11:50:57;4.10;;;1.53;;
9836;SDS011;4957;51.412;6.724;2023-08-21T11:53:34;3.57;;;1.43;;
9836;SDS011;4957;51.412;6.724;2023-08-21T11:56:01;6.60;;;1.30;;
9836;SDS011;4957;51.412;6.724;2023-08-21T11:58:27;4.37;;;1.57;;
9836;SDS011;4957;51.412;6.724;2023-08-21T12:00:53;4.60;;;1.40;;
9836;SDS011;4957;51.412;6.724;2023-08-21T12:03:19;7.23;;;1.67;;
9836;SDS011;4957;51.412;6.724;2023-08-21T12:05:45;3.00;;;1.20;;
9836;SDS011;4957;51.412;6.724;2023-08-21T12:08:11;5.30;;;1.53;;
9836;SDS011;4957;51.412;6.724;2023-08-21T12:10:36;5.57;;;1.67;;
9836;SDS011;4957;51.412;6.724;2023-08-21T12:13:02;4.00;;;1.43;;
9836;SDS011;4957;51.412;6.724;2023-08-21T12:15:28;4.80;;;1.30;;
9836;SDS011;4957;51.412;6.724;2023-08-21T12:17:54;3.10;;;1.57;;
9836;SDS011;4957;51.412;6.724;2023-08-21T12:20:20;5.57;;;1.70;;
9836;SDS011;4957;51.412;6.724;2023-08-21T12:22:46;6.07;;;1.57;;
9836;SDS011;4957;51.412;6.724;2023-08-21T12:25:12;3.33;;;1.40;;
9836;SDS011;4957;51.412;6.724;2023-08-21T12:27:38;5.70;;;2.13;;
9836;SDS011;4957;51.412;6.724;2023-08-21T12:30:04;4.53;;;1.63;;
9836;SDS011;4957;51.412;6.724;2023-08-21T12:32:30;5.73;;;1.27;;
9836;SDS011;4957;51.412;6.724;2023-08-21T12:34:56;3.40;;;1.40;;
9836;SDS011;4957;51.412;6.724;2023-08-21T12:37:22;3.60;;;1.70;;
9836;SDS011;4957;51.412;6.724;2023-08-21T12:39:47;5.97;;;1.40;;
9836;SDS011;4957;51.412;6.724;2023-08-21T12:42:13;6.97;;;2.10;;
9836;SDS011;4957;51.412;6.724;2023-08-21T12:44:39;5.87;;;1.50;;
9836;SDS011;4957;51.412;6.724;2023-08-21T12:47:05;4.77;;;1.80;;
9836;SDS011;4957;51.412;6.724;2023-08-21T12:49:31;6.83;;;1.90;;
9836;SDS011;4957;51.412;6.724;2023-08-21T12:51:57;5.03;;;1.80;;
9836;SDS011;4957;51.412;6.724;2023-08-21T12:54:22;6.80;;;1.53;;
9836;SDS011;4957;51.412;6.724;2023-08-21T12:56:48;4.13;;;1.50;;
9836;SDS011;4957;51.412;6.724;2023-08-21T12:59:14;4.43;;;1.57;;
9836;SDS011;4957;51.412;6.724;2023-08-21T13:01:39;6.23;;;1.67;;
9836;SDS011;4957;51.412;6.724;2023-08-21T13:04:05;6.60;;;1.87;;
9836;SDS011;4957;51.412;6.724;2023-08-21T13:06:31;5.47;;;1.63;;
9836;SDS011;4957;51.412;6.724;2023-08-21T13:08:57;5.03;;;2.00;;
9836;SDS011;4957;51.412;6.724;2023-08-21T13:11:22;6.70;;;2.13;;
9836;SDS011;4957;51.412;6.724;2023-08-21T13:13:48;5.50;;;2.00;;
9836;SDS011;4957;51.412;6.724;2023-08-21T13:16:14;4.57;;;1.97;;
9836;SDS011;4957;51.412;6.724;2023-08-21T13:18:39;7.40;;;2.03;;
9836;SDS011;4957;51.412;6.724;2023-08-21T13:21:05;4.17;;;1.93;;
9836;SDS011;4957;51.412;6.724;2023-08-21T13:23:31;7.10;;;2.37;;
9836;SDS011;4957;51.412;6.724;2023-08-21T13:25:59;5.33;;;1.80;;
9836;SDS011;4957;51.412;6.724;2023-08-21T13:28:26;6.93;;;2.00;;
9836;SDS011;4957;51.412;6.724;2023-08-21T13:30:51;9.93;;;1.57;;
9836;SDS011;4957;51.412;6.724;2023-08-21T13:33:18;3.43;;;1.80;;
9836;SDS011;4957;51.412;6.724;2023-08-21T13:35:44;4.00;;;1.70;;
9836;SDS011;4957;51.412;6.724;2023-08-21T13:38:11;5.00;;;1.50;;
9836;SDS011;4957;51.412;6.724;2023-08-21T13:40:37;4.43;;;1.97;;
9836;SDS011;4957;51.412;6.724;2023-08-21T13:43:03;5.23;;;2.63;;
9836;SDS011;4957;51.412;6.724;2023-08-21T13:45:29;5.53;;;2.50;;
9836;SDS011;4957;51.412;6.724;2023-08-21T13:47:55;5.63;;;2.23;;
9836;SDS011;4957;51.412;6.724;2023-08-21T13:50:21;6.43;;;2.33;;
9836;SDS011;4957;51.412;6.724;2023-08-21T13:52:47;6.00;;;2.53;;
9836;SDS011;4957;51.412;6.724;2023-08-21T13:55:12;4.93;;;2.63;;
9836;SDS011;4957;51.412;6.724;2023-08-21T13:57:39;8.83;;;2.23;;
9836;SDS011;4957;51.412;6.724;2023-08-21T14:00:06;5.00;;;2.07;;
9836;SDS011;4957;51.412;6.724;2023-08-21T14:02:33;5.07;;;2.20;;
9836;SDS011;4957;51.412;6.724;2023-08-21T14:05:00;6.17;;;2.50;;
9836;SDS011;4957;51.412;6.724;2023-08-21T14:07:26;7.87;;;2.80;;
9836;SDS011;4957;51.412;6.724;2023-08-21T14:09:52;11.33;;;2.50;;
9836;SDS011;4957;51.412;6.724;2023-08-21T14:12:18;5.10;;;2.30;;
9836;SDS011;4957;51.412;6.724;2023-08-21T14:14:44;6.23;;;2.37;;
9836;SDS011;4957;51.412;6.724;2023-08-21T14:17:09;6.17;;;1.87;;
9836;SDS011;4957;51.412;6.724;2023-08-21T14:19:35;5.17;;;1.77;;
9836;SDS011;4957;51.412;6.724;2023-08-21T14:22:01;4.17;;;1.80;;
9836;SDS011;4957;51.412;6.724;2023-08-21T14:24:28;5.90;;;2.07;;
9836;SDS011;4957;51.412;6.724;2023-08-21T14:26:54;8.27;;;2.63;;
9836;SDS011;4957;51.412;6.724;2023-08-21T14:29:19;5.90;;;2.20;;
9836;SDS011;4957;51.412;6.724;2023-08-21T14:31:45;9.03;;;2.57;;
9836;SDS011;4957;51.412;6.724;2023-08-21T14:34:12;5.73;;;2.43;;
9836;SDS011;4957;51.412;6.724;2023-08-21T14:36:38;6.27;;;2.70;;
9836;SDS011;4957;51.412;6.724;2023-08-21T14:39:04;5.50;;;2.53;;
9836;SDS011;4957;51.412;6.724;2023-08-21T14:41:31;4.43;;;2.03;;
9836;SDS011;4957;51.412;6.724;2023-08-21T14:43:57;5.60;;;2.23;;
9836;SDS011;4957;51.412;6.724;2023-08-21T14:46:22;7.77;;;2.33;;
9836;SDS011;4957;51.412;6.724;2023-08-21T14:48:48;4.93;;;2.90;;
9836;SDS011;4957;51.412;6.724;2023-08-21T14:51:14;5.03;;;2.40;;
9836;SDS011;4957;51.412;6.724;2023-08-21T14:53:39;6.53;;;2.40;;
9836;SDS011;4957;51.412;6.724;2023-08-21T14:56:05;10.23;;;2.53;;
9836;SDS011;4957;51.412;6.724;2023-08-21T14:58:30;4.83;;;2.30;;
9836;SDS011;4957;51.412;6.724;2023-08-21T15:00:56;7.03;;;2.60;;
9836;SDS011;4957;51.412;6.724;2023-08-21T15:03:22;8.30;;;2.73;;
9836;SDS011;4957;51.412;6.724;2023-08-21T15:05:47;7.30;;;2.40;;
9836;SDS011;4957;51.412;6.724;2023-08-21T15:08:13;3.23;;;2.23;;
9836;SDS011;4957;51.412;6.724;2023-08-21T15:10:39;5.87;;;2.80;;
9836;SDS011;4957;51.412;6.724;2023-08-21T15:13:04;5.77;;;2.70;;
9836;SDS011;4957;51.412;6.724;2023-08-21T15:15:30;7.87;;;2.47;;
9836;SDS011;4957;51.412;6.724;2023-08-21T15:17:56;6.63;;;2.20;;